Terminal Aerodrome Forecast
Issued by NWS Wilmington, OH

Current Version | Previous Version | Graphics & Text | Print | Product List | Glossary On
Versions: 1 2 3 4 5 6 7 8 9 10 11 12 13 14 15 16 17 18 19 20 21 22 23 24 25 26 27 28 29 30 31 32 33 34 35
000
FTUS41 KILN 280049 AAA
TAFCVG
TAF AMD
KCVG 280049Z 2801/2906 09010KT 3SM BR VCTS BKN007CB OVC130
      TEMPO 2801/2805 -TSRA BR SCT007 OVC025CB
     FM280700 17008KT 3SM BR VCSH OVC008
     FM281400 24008KT P6SM BKN022
     FM281800 26010KT P6SM BKN035
     FM290000 27006KT P6SM BKN035=

USA.gov is the U.S. government's official web portal to all federal, state and local government web resources and services.